Terminal Aerodrome Forecast
Issued by NWS

Home | Current Version | Previous Version | Text Only | Print | Product List | Glossary Off
Versions: 1 2 3 4 5 6 7 8 9 10 11 12 13 14 15 16

000
FTUS42 KMHX 252331
TAFISO
TAF
KISO 252331Z 2600/2624 VRB03KT P6SM VCSH OVC100
     FM260230 03005KT 3SM -RASN BR OVC007
     FM260400 03010G18KT 3/4SM -SNPL BR OVC005
     FM261100 02012G20KT 4SM -FZDZ BR OVC006
     FM261600 02010G18KT P6SM OVC007
      AMD LTD TO CLD VIS AND WIND=

USA.gov is the U.S. government's official web portal to all federal, state and local government web resources and services.